sensor_id;sensor_type;location;lat;lon;timestamp;temperature;humidity
12847;DHT22;6492;48.128;8.320;2023-11-19T00:03:51;7.70;75.20
12847;DHT22;6492;48.128;8.320;2023-11-19T00:07:54;7.70;75.40
12847;DHT22;6492;48.128;8.320;2023-11-19T00:11:55;7.70;75.80
12847;DHT22;6492;48.128;8.320;2023-11-19T00:15:59;7.80;75.90
12847;DHT22;6492;48.128;8.320;2023-11-19T00:20:01;7.80;76.00
12847;DHT22;6492;48.128;8.320;2023-11-19T00:24:06;7.80;76.20
12847;DHT22;6492;48.128;8.320;2023-11-19T00:28:09;7.80;76.40
12847;DHT22;6492;48.128;8.320;2023-11-19T00:32:13;7.90;76.70
12847;DHT22;6492;48.128;8.320;2023-11-19T00:36:15;7.90;77.00
12847;DHT22;6492;48.128;8.320;2023-11-19T00:40:17;8.00;77.10
12847;DHT22;6492;48.128;8.320;2023-11-19T00:44:22;8.00;77.10
12847;DHT22;6492;48.128;8.320;2023-11-19T00:48:25;8.00;77.10
12847;DHT22;6492;48.128;8.320;2023-11-19T00:52:28;8.00;77.00
12847;DHT22;6492;48.128;8.320;2023-11-19T00:56:30;8.00;77.00
12847;DHT22;6492;48.128;8.320;2023-11-19T01:00:32;8.00;76.70
12847;DHT22;6492;48.128;8.320;2023-11-19T01:04:36;8.00;77.30
12847;DHT22;6492;48.128;8.320;2023-11-19T01:08:38;8.00;76.50
12847;DHT22;6492;48.128;8.320;2023-11-19T01:12:40;8.10;76.80
12847;DHT22;6492;48.128;8.320;2023-11-19T01:16:42;8.00;76.50
12847;DHT22;6492;48.128;8.320;2023-11-19T01:20:46;8.10;76.80
12847;DHT22;6492;48.128;8.320;2023-11-19T01:24:47;8.00;76.70
12847;DHT22;6492;48.128;8.320;2023-11-19T01:28:49;8.10;77.00
12847;DHT22;6492;48.128;8.320;2023-11-19T01:32:53;8.10;77.30
12847;DHT22;6492;48.128;8.320;2023-11-19T01:36:57;8.20;77.20
12847;DHT22;6492;48.128;8.320;2023-11-19T01:40:59;8.20;77.30
12847;DHT22;6492;48.128;8.320;2023-11-19T01:45:02;8.20;77.40
12847;DHT22;6492;48.128;8.320;2023-11-19T01:49:07;8.30;77.50
12847;DHT22;6492;48.128;8.320;2023-11-19T01:53:11;8.30;77.60
12847;DHT22;6492;48.128;8.320;2023-11-19T01:57:13;8.30;77.50
12847;DHT22;6492;48.128;8.320;2023-11-19T02:01:15;8.30;78.30
12847;DHT22;6492;48.128;8.320;2023-11-19T02:05:17;8.30;77.70
12847;DHT22;6492;48.128;8.320;2023-11-19T02:09:20;8.30;77.70
12847;DHT22;6492;48.128;8.320;2023-11-19T02:13:22;8.30;77.70
12847;DHT22;6492;48.128;8.320;2023-11-19T02:17:26;8.30;77.70
12847;DHT22;6492;48.128;8.320;2023-11-19T02:21:28;8.30;77.70
12847;DHT22;6492;48.128;8.320;2023-11-19T02:25:32;8.30;77.60
12847;DHT22;6492;48.128;8.320;2023-11-19T02:29:36;8.30;77.40
12847;DHT22;6492;48.128;8.320;2023-11-19T02:33:38;8.20;77.10
12847;DHT22;6492;48.128;8.320;2023-11-19T02:37:40;8.20;77.30
12847;DHT22;6492;48.128;8.320;2023-11-19T02:41:42;8.30;77.30
12847;DHT22;6492;48.128;8.320;2023-11-19T02:45:45;8.30;77.00
12847;DHT22;6492;48.128;8.320;2023-11-19T02:49:47;8.30;77.00
12847;DHT22;6492;48.128;8.320;2023-11-19T02:53:49;8.30;77.00
12847;DHT22;6492;48.128;8.320;2023-11-19T02:57:51;8.20;77.00
12847;DHT22;6492;48.128;8.320;2023-11-19T03:01:55;8.20;77.10
12847;DHT22;6492;48.128;8.320;2023-11-19T03:05:57;8.20;77.30
12847;DHT22;6492;48.128;8.320;2023-11-19T03:09:58;8.20;77.30
12847;DHT22;6492;48.128;8.320;2023-11-19T03:14:00;8.20;77.50
12847;DHT22;6492;48.128;8.320;2023-11-19T03:18:07;8.20;77.70
12847;DHT22;6492;48.128;8.320;2023-11-19T03:22:08;8.20;77.60
12847;DHT22;6492;48.128;8.320;2023-11-19T03:26:11;8.20;77.70
12847;DHT22;6492;48.128;8.320;2023-11-19T03:30:13;8.20;77.50
12847;DHT22;6492;48.128;8.320;2023-11-19T03:34:19;8.20;77.60
12847;DHT22;6492;48.128;8.320;2023-11-19T03:38:22;8.20;77.70
12847;DHT22;6492;48.128;8.320;2023-11-19T03:42:24;8.20;77.70
12847;DHT22;6492;48.128;8.320;2023-11-19T03:46:26;8.20;77.80
12847;DHT22;6492;48.128;8.320;2023-11-19T03:50:30;8.40;78.00
12847;DHT22;6492;48.128;8.320;2023-11-19T03:54:32;8.20;77.90
12847;DHT22;6492;48.128;8.320;2023-11-19T03:58:33;8.20;78.10
12847;DHT22;6492;48.128;8.320;2023-11-19T04:02:36;8.30;78.30
12847;DHT22;6492;48.128;8.320;2023-11-19T04:06:39;8.20;78.20
12847;DHT22;6492;48.128;8.320;2023-11-19T04:10:41;8.20;78.20
12847;DHT22;6492;48.128;8.320;2023-11-19T04:14:43;8.20;78.20
12847;DHT22;6492;48.128;8.320;2023-11-19T04:18:45;8.20;78.30
12847;DHT22;6492;48.128;8.320;2023-11-19T04:22:50;8.30;78.40
12847;DHT22;6492;48.128;8.320;2023-11-19T04:26:51;8.20;78.30
12847;DHT22;6492;48.128;8.320;2023-11-19T04:30:53;8.30;78.50
12847;DHT22;6492;48.128;8.320;2023-11-19T04:34:56;8.30;78.60
12847;DHT22;6492;48.128;8.320;2023-11-19T04:38:59;8.60;78.60
12847;DHT22;6492;48.128;8.320;2023-11-19T04:43:01;8.40;78.50
12847;DHT22;6492;48.128;8.320;2023-11-19T04:47:03;8.40;78.50
12847;DHT22;6492;48.128;8.320;2023-11-19T04:51:05;8.40;78.60
12847;DHT22;6492;48.128;8.320;2023-11-19T04:55:08;8.40;78.60
12847;DHT22;6492;48.128;8.320;2023-11-19T04:59:13;8.40;78.60
12847;DHT22;6492;48.128;8.320;2023-11-19T05:03:14;8.40;78.60
12847;DHT22;6492;48.128;8.320;2023-11-19T05:07:16;8.40;78.50
12847;DHT22;6492;48.128;8.320;2023-11-19T05:11:19;8.40;78.50
12847;DHT22;6492;48.128;8.320;2023-11-19T05:15:21;8.40;78.60
12847;DHT22;6492;48.128;8.320;2023-11-19T05:19:23;8.40;78.60
12847;DHT22;6492;48.128;8.320;2023-11-19T05:23:25;8.40;78.60
12847;DHT22;6492;48.128;8.320;2023-11-19T05:27:28;8.40;78.60
12847;DHT22;6492;48.128;8.320;2023-11-19T05:31:30;8.50;78.70
12847;DHT22;6492;48.128;8.320;2023-11-19T05:35:31;8.40;78.60
12847;DHT22;6492;48.128;8.320;2023-11-19T05:39:33;8.40;78.60
12847;DHT22;6492;48.128;8.320;2023-11-19T05:43:36;8.50;78.80
12847;DHT22;6492;48.128;8.320;2023-11-19T05:47:41;8.50;78.80
12847;DHT22;6492;48.128;8.320;2023-11-19T05:51:43;8.50;79.00
12847;DHT22;6492;48.128;8.320;2023-11-19T05:55:45;8.50;78.70
12847;DHT22;6492;48.128;8.320;2023-11-19T05:59:56;8.50;78.70
12847;DHT22;6492;48.128;8.320;2023-11-19T06:04:05;8.50;78.70
12847;DHT22;6492;48.128;8.320;2023-11-19T06:08:07;8.50;78.70
12847;DHT22;6492;48.128;8.320;2023-11-19T06:12:09;8.50;78.70
12847;DHT22;6492;48.128;8.320;2023-11-19T06:16:12;8.60;78.80
12847;DHT22;6492;48.128;8.320;2023-11-19T06:20:14;8.50;78.70
12847;DHT22;6492;48.128;8.320;2023-11-19T06:24:17;8.70;78.80
12847;DHT22;6492;48.128;8.320;2023-11-19T06:28:19;8.50;78.80
12847;DHT22;6492;48.128;8.320;2023-11-19T06:32:22;8.60;78.70
12847;DHT22;6492;48.128;8.320;2023-11-19T06:36:24;8.60;78.80
12847;DHT22;6492;48.128;8.320;2023-11-19T06:40:27;8.60;78.80
12847;DHT22;6492;48.128;8.320;2023-11-19T06:44:29;8.60;78.80
12847;DHT22;6492;48.128;8.320;2023-11-19T06:48:33;8.70;78.90
12847;DHT22;6492;48.128;8.320;2023-11-19T06:52:34;8.60;78.80
12847;DHT22;6492;48.128;8.320;2023-11-19T06:56:38;8.70;78.90
12847;DHT22;6492;48.128;8.320;2023-11-19T07:00:40;8.70;78.90
12847;DHT22;6492;48.128;8.320;2023-11-19T07:04:43;8.70;78.90
12847;DHT22;6492;48.128;8.320;2023-11-19T07:08:45;9.00;79.00
12847;DHT22;6492;48.128;8.320;2023-11-19T07:12:47;8.80;79.00
12847;DHT22;6492;48.128;8.320;2023-11-19T07:16:50;8.80;78.90
12847;DHT22;6492;48.128;8.320;2023-11-19T07:20:54;8.80;78.90
12847;DHT22;6492;48.128;8.320;2023-11-19T07:24:55;8.80;78.90
12847;DHT22;6492;48.128;8.320;2023-11-19T07:28:57;8.80;79.00
12847;DHT22;6492;48.128;8.320;2023-11-19T07:32:59;8.90;79.00
12847;DHT22;6492;48.128;8.320;2023-11-19T07:37:02;9.00;79.00
12847;DHT22;6492;48.128;8.320;2023-11-19T07:41:06;9.00;79.00
12847;DHT22;6492;48.128;8.320;2023-11-19T07:45:09;9.10;79.00
12847;DHT22;6492;48.128;8.320;2023-11-19T07:49:18;9.10;79.00
12847;DHT22;6492;48.128;8.320;2023-11-19T07:53:24;9.20;79.00
12847;DHT22;6492;48.128;8.320;2023-11-19T07:57:36;9.20;78.60
12847;DHT22;6492;48.128;8.320;2023-11-19T08:01:37;9.30;77.80
12847;DHT22;6492;48.128;8.320;2023-11-19T08:05:39;9.30;77.00
12847;DHT22;6492;48.128;8.320;2023-11-19T08:09:50;9.30;76.40
12847;DHT22;6492;48.128;8.320;2023-11-19T08:13:52;9.40;76.60
12847;DHT22;6492;48.128;8.320;2023-11-19T08:17:54;9.40;76.60
12847;DHT22;6492;48.128;8.320;2023-11-19T08:22:05;9.50;76.80
12847;DHT22;6492;48.128;8.320;2023-11-19T08:26:08;9.70;76.70
12847;DHT22;6492;48.128;8.320;2023-11-19T08:30:12;9.80;76.60
12847;DHT22;6492;48.128;8.320;2023-11-19T08:34:13;9.80;75.60
12847;DHT22;6492;48.128;8.320;2023-11-19T08:38:16;9.90;74.50
12847;DHT22;6492;48.128;8.320;2023-11-19T08:42:19;9.90;71.60
12847;DHT22;6492;48.128;8.320;2023-11-19T08:46:24;9.80;70.10
12847;DHT22;6492;48.128;8.320;2023-11-19T08:50:30;9.90;70.50
12847;DHT22;6492;48.128;8.320;2023-11-19T08:54:34;9.90;70.00
12847;DHT22;6492;48.128;8.320;2023-11-19T08:58:37;9.90;69.10
12847;DHT22;6492;48.128;8.320;2023-11-19T09:02:38;9.90;67.90
12847;DHT22;6492;48.128;8.320;2023-11-19T09:06:40;10.60;68.70
12847;DHT22;6492;48.128;8.320;2023-11-19T09:10:43;10.20;66.50
12847;DHT22;6492;48.128;8.320;2023-11-19T09:14:48;10.20;66.60
12847;DHT22;6492;48.128;8.320;2023-11-19T09:18:50;10.40;64.70
12847;DHT22;6492;48.128;8.320;2023-11-19T09:22:52;10.20;63.00
12847;DHT22;6492;48.128;8.320;2023-11-19T09:26:54;10.20;63.70
12847;DHT22;6492;48.128;8.320;2023-11-19T09:30:58;10.90;64.20
12847;DHT22;6492;48.128;8.320;2023-11-19T09:34:59;10.50;62.20
12847;DHT22;6492;48.128;8.320;2023-11-19T09:39:02;10.80;63.40
12847;DHT22;6492;48.128;8.320;2023-11-19T09:43:05;11.10;59.40
12847;DHT22;6492;48.128;8.320;2023-11-19T09:47:10;11.10;57.00
12847;DHT22;6492;48.128;8.320;2023-11-19T09:51:12;11.20;54.20
12847;DHT22;6492;48.128;8.320;2023-11-19T09:55:14;11.20;55.00
12847;DHT22;6492;48.128;8.320;2023-11-19T09:59:16;11.40;52.10
12847;DHT22;6492;48.128;8.320;2023-11-19T10:03:22;11.10;48.70
12847;DHT22;6492;48.128;8.320;2023-11-19T10:07:25;11.00;51.20
12847;DHT22;6492;48.128;8.320;2023-11-19T10:11:26;10.70;52.20
12847;DHT22;6492;48.128;8.320;2023-11-19T10:15:31;10.70;53.60
12847;DHT22;6492;48.128;8.320;2023-11-19T10:19:36;10.90;52.70
12847;DHT22;6492;48.128;8.320;2023-11-19T10:23:51;11.30;49.50
12847;DHT22;6492;48.128;8.320;2023-11-19T10:27:55;11.50;51.80
12847;DHT22;6492;48.128;8.320;2023-11-19T10:31:57;11.60;50.10
12847;DHT22;6492;48.128;8.320;2023-11-19T10:36:00;11.60;49.40
12847;DHT22;6492;48.128;8.320;2023-11-19T10:40:03;11.20;51.60
12847;DHT22;6492;48.128;8.320;2023-11-19T10:44:05;11.00;54.20
12847;DHT22;6492;48.128;8.320;2023-11-19T10:48:11;11.20;53.50
12847;DHT22;6492;48.128;8.320;2023-11-19T10:52:17;11.60;51.90
12847;DHT22;6492;48.128;8.320;2023-11-19T10:56:25;11.60;47.50
12847;DHT22;6492;48.128;8.320;2023-11-19T11:00:38;11.40;48.40
12847;DHT22;6492;48.128;8.320;2023-11-19T11:04:41;11.10;51.00
12847;DHT22;6492;48.128;8.320;2023-11-19T11:08:52;11.00;53.00
12847;DHT22;6492;48.128;8.320;2023-11-19T11:12:56;11.00;53.30
12847;DHT22;6492;48.128;8.320;2023-11-19T11:17:01;11.20;50.70
12847;DHT22;6492;48.128;8.320;2023-11-19T11:21:06;11.20;47.30
12847;DHT22;6492;48.128;8.320;2023-11-19T11:25:23;11.00;46.20
12847;DHT22;6492;48.128;8.320;2023-11-19T11:29:35;11.00;48.30
12847;DHT22;6492;48.128;8.320;2023-11-19T11:33:52;11.00;48.50
12847;DHT22;6492;48.128;8.320;2023-11-19T11:38:03;11.00;50.60
12847;DHT22;6492;48.128;8.320;2023-11-19T11:42:31;11.00;50.20
12847;DHT22;6492;48.128;8.320;2023-11-19T11:46:56;11.10;50.20
12847;DHT22;6492;48.128;8.320;2023-11-19T11:50:58;11.20;47.80
12847;DHT22;6492;48.128;8.320;2023-11-19T11:55:04;11.00;48.20
12847;DHT22;6492;48.128;8.320;2023-11-19T11:59:18;11.00;47.80
12847;DHT22;6492;48.128;8.320;2023-11-19T12:03:21;11.00;50.50
12847;DHT22;6492;48.128;8.320;2023-11-19T12:07:29;11.20;47.10
12847;DHT22;6492;48.128;8.320;2023-11-19T12:11:31;11.40;47.90
12847;DHT22;6492;48.128;8.320;2023-11-19T12:16:11;11.70;47.10
12847;DHT22;6492;48.128;8.320;2023-11-19T12:20:17;12.00;44.40
12847;DHT22;6492;48.128;8.320;2023-11-19T12:24:19;11.90;38.90
12847;DHT22;6492;48.128;8.320;2023-11-19T12:28:22;11.80;42.40
12847;DHT22;6492;48.128;8.320;2023-11-19T12:32:26;11.90;41.50
12847;DHT22;6492;48.128;8.320;2023-11-19T12:36:29;11.90;40.10
12847;DHT22;6492;48.128;8.320;2023-11-19T12:41:05;11.80;39.10
12847;DHT22;6492;48.128;8.320;2023-11-19T12:45:08;11.50;40.10
12847;DHT22;6492;48.128;8.320;2023-11-19T12:49:14;11.20;42.50
12847;DHT22;6492;48.128;8.320;2023-11-19T12:53:17;11.00;44.00
12847;DHT22;6492;48.128;8.320;2023-11-19T12:57:38;10.70;46.30
12847;DHT22;6492;48.128;8.320;2023-11-19T13:01:56;10.60;48.10
12847;DHT22;6492;48.128;8.320;2023-11-19T13:06:07;10.60;50.60
12847;DHT22;6492;48.128;8.320;2023-11-19T13:10:10;10.60;48.30
12847;DHT22;6492;48.128;8.320;2023-11-19T13:14:18;10.50;47.60
12847;DHT22;6492;48.128;8.320;2023-11-19T13:18:20;10.30;46.50
12847;DHT22;6492;48.128;8.320;2023-11-19T13:22:23;10.10;48.40
12847;DHT22;6492;48.128;8.320;2023-11-19T13:26:25;10.50;44.80
12847;DHT22;6492;48.128;8.320;2023-11-19T13:30:27;10.40;41.40
12847;DHT22;6492;48.128;8.320;2023-11-19T13:34:29;10.30;41.90
12847;DHT22;6492;48.128;8.320;2023-11-19T13:38:35;10.10;42.70
12847;DHT22;6492;48.128;8.320;2023-11-19T13:42:37;10.20;42.70
12847;DHT22;6492;48.128;8.320;2023-11-19T13:46:41;10.30;40.60
12847;DHT22;6492;48.128;8.320;2023-11-19T13:50:43;10.20;39.20
12847;DHT22;6492;48.128;8.320;2023-11-19T13:54:46;10.20;39.30
12847;DHT22;6492;48.128;8.320;2023-11-19T13:58:47;10.40;37.60
12847;DHT22;6492;48.128;8.320;2023-11-19T14:02:49;10.60;36.70
12847;DHT22;6492;48.128;8.320;2023-11-19T14:06:52;10.90;35.60
12847;DHT22;6492;48.128;8.320;2023-11-19T14:10:57;10.90;35.10
12847;DHT22;6492;48.128;8.320;2023-11-19T14:14:59;10.70;35.60
12847;DHT22;6492;48.128;8.320;2023-11-19T14:19:01;10.60;35.90
12847;DHT22;6492;48.128;8.320;2023-11-19T14:23:03;10.40;35.80
12847;DHT22;6492;48.128;8.320;2023-11-19T14:27:06;10.30;37.50
12847;DHT22;6492;48.128;8.320;2023-11-19T14:31:08;10.30;37.50
12847;DHT22;6492;48.128;8.320;2023-11-19T14:35:10;10.30;34.80
12847;DHT22;6492;48.128;8.320;2023-11-19T14:39:12;10.10;34.70
12847;DHT22;6492;48.128;8.320;2023-11-19T14:43:15;10.00;35.40
12847;DHT22;6492;48.128;8.320;2023-11-19T14:47:16;9.80;35.40
12847;DHT22;6492;48.128;8.320;2023-11-19T14:51:18;9.70;35.30
12847;DHT22;6492;48.128;8.320;2023-11-19T14:55:22;9.60;35.70
12847;DHT22;6492;48.128;8.320;2023-11-19T14:59:25;9.50;33.70
12847;DHT22;6492;48.128;8.320;2023-11-19T15:03:27;9.50;34.40
12847;DHT22;6492;48.128;8.320;2023-11-19T15:07:28;9.30;34.40
12847;DHT22;6492;48.128;8.320;2023-11-19T15:11:30;9.20;34.70
12847;DHT22;6492;48.128;8.320;2023-11-19T15:15:34;9.20;35.90
12847;DHT22;6492;48.128;8.320;2023-11-19T15:19:36;8.90;36.50
12847;DHT22;6492;48.128;8.320;2023-11-19T15:23:38;8.80;37.20
12847;DHT22;6492;48.128;8.320;2023-11-19T15:27:41;8.60;37.90
12847;DHT22;6492;48.128;8.320;2023-11-19T15:31:44;8.60;38.10
12847;DHT22;6492;48.128;8.320;2023-11-19T15:35:45;8.50;38.70
12847;DHT22;6492;48.128;8.320;2023-11-19T15:39:48;8.40;39.60
12847;DHT22;6492;48.128;8.320;2023-11-19T15:43:51;8.20;40.40
12847;DHT22;6492;48.128;8.320;2023-11-19T15:47:54;8.10;41.20
12847;DHT22;6492;48.128;8.320;2023-11-19T15:51:56;8.10;40.20
12847;DHT22;6492;48.128;8.320;2023-11-19T15:55:58;8.70;40.60
12847;DHT22;6492;48.128;8.320;2023-11-19T16:00:00;8.00;40.80
12847;DHT22;6492;48.128;8.320;2023-11-19T16:04:04;8.00;40.70
12847;DHT22;6492;48.128;8.320;2023-11-19T16:08:06;8.00;41.60
12847;DHT22;6492;48.128;8.320;2023-11-19T16:12:11;7.90;41.90
12847;DHT22;6492;48.128;8.320;2023-11-19T16:16:13;7.80;43.10
12847;DHT22;6492;48.128;8.320;2023-11-19T16:20:17;7.70;42.90
12847;DHT22;6492;48.128;8.320;2023-11-19T16:24:19;7.70;43.30
12847;DHT22;6492;48.128;8.320;2023-11-19T16:28:21;7.60;44.00
12847;DHT22;6492;48.128;8.320;2023-11-19T16:32:24;7.60;44.00
12847;DHT22;6492;48.128;8.320;2023-11-19T16:36:29;7.60;43.90
12847;DHT22;6492;48.128;8.320;2023-11-19T16:40:31;7.70;43.20
12847;DHT22;6492;48.128;8.320;2023-11-19T16:44:42;7.70;42.80
12847;DHT22;6492;48.128;8.320;2023-11-19T16:48:45;7.70;42.40
12847;DHT22;6492;48.128;8.320;2023-11-19T16:53:12;7.70;42.60
12847;DHT22;6492;48.128;8.320;2023-11-19T16:57:13;7.60;43.30
12847;DHT22;6492;48.128;8.320;2023-11-19T17:01:19;7.60;43.20
12847;DHT22;6492;48.128;8.320;2023-11-19T17:05:24;7.70;42.10
12847;DHT22;6492;48.128;8.320;2023-11-19T17:09:39;7.80;42.10
12847;DHT22;6492;48.128;8.320;2023-11-19T17:13:42;7.80;41.80
12847;DHT22;6492;48.128;8.320;2023-11-19T17:17:43;7.80;42.30
12847;DHT22;6492;48.128;8.320;2023-11-19T17:21:45;8.40;42.50
12847;DHT22;6492;48.128;8.320;2023-11-19T17:25:48;8.50;42.00
12847;DHT22;6492;48.128;8.320;2023-11-19T17:29:50;8.00;41.70
12847;DHT22;6492;48.128;8.320;2023-11-19T17:33:52;8.10;42.00
12847;DHT22;6492;48.128;8.320;2023-11-19T17:37:57;8.00;40.90
12847;DHT22;6492;48.128;8.320;2023-11-19T17:42:00;8.10;40.40
12847;DHT22;6492;48.128;8.320;2023-11-19T17:46:10;8.10;41.40
12847;DHT22;6492;48.128;8.320;2023-11-19T17:50:12;8.10;42.10
12847;DHT22;6492;48.128;8.320;2023-11-19T17:54:14;8.20;41.00
12847;DHT22;6492;48.128;8.320;2023-11-19T17:58:19;8.20;41.80
12847;DHT22;6492;48.128;8.320;2023-11-19T18:02:22;8.10;41.70
12847;DHT22;6492;48.128;8.320;2023-11-19T18:06:23;8.20;40.20
12847;DHT22;6492;48.128;8.320;2023-11-19T18:10:25;8.20;39.90
12847;DHT22;6492;48.128;8.320;2023-11-19T18:14:38;8.10;40.80
12847;DHT22;6492;48.128;8.320;2023-11-19T18:18:41;8.10;40.10
12847;DHT22;6492;48.128;8.320;2023-11-19T18:22:43;8.10;40.40
12847;DHT22;6492;48.128;8.320;2023-11-19T18:26:56;8.10;39.80
12847;DHT22;6492;48.128;8.320;2023-11-19T18:31:09;8.10;40.10
12847;DHT22;6492;48.128;8.320;2023-11-19T18:35:14;8.10;40.80
12847;DHT22;6492;48.128;8.320;2023-11-19T18:39:17;8.00;41.20
12847;DHT22;6492;48.128;8.320;2023-11-19T18:43:21;8.10;41.20
12847;DHT22;6492;48.128;8.320;2023-11-19T18:47:24;8.00;41.80
12847;DHT22;6492;48.128;8.320;2023-11-19T18:51:26;8.00;42.10
12847;DHT22;6492;48.128;8.320;2023-11-19T18:55:28;7.90;43.60
12847;DHT22;6492;48.128;8.320;2023-11-19T18:59:30;7.90;42.40
12847;DHT22;6492;48.128;8.320;2023-11-19T19:03:40;7.90;43.10
12847;DHT22;6492;48.128;8.320;2023-11-19T19:07:42;7.90;43.10
12847;DHT22;6492;48.128;8.320;2023-11-19T19:11:44;8.60;44.00
12847;DHT22;6492;48.128;8.320;2023-11-19T19:15:49;8.00;43.20
12847;DHT22;6492;48.128;8.320;2023-11-19T19:19:55;8.10;42.90
12847;DHT22;6492;48.128;8.320;2023-11-19T19:23:57;7.90;42.90
12847;DHT22;6492;48.128;8.320;2023-11-19T19:28:03;8.00;42.70
12847;DHT22;6492;48.128;8.320;2023-11-19T19:32:37;7.90;41.90
12847;DHT22;6492;48.128;8.320;2023-11-19T19:36:45;7.90;41.90
12847;DHT22;6492;48.128;8.320;2023-11-19T19:40:48;7.90;42.20
12847;DHT22;6492;48.128;8.320;2023-11-19T19:44:50;8.00;41.70
12847;DHT22;6492;48.128;8.320;2023-11-19T19:48:52;8.00;42.00
12847;DHT22;6492;48.128;8.320;2023-11-19T19:52:55;8.00;41.50
12847;DHT22;6492;48.128;8.320;2023-11-19T19:56:57;8.00;42.40
12847;DHT22;6492;48.128;8.320;2023-11-19T20:00:59;8.00;41.30
12847;DHT22;6492;48.128;8.320;2023-11-19T20:05:03;8.00;40.60
12847;DHT22;6492;48.128;8.320;2023-11-19T20:09:11;8.00;40.00
12847;DHT22;6492;48.128;8.320;2023-11-19T20:13:39;8.10;39.50
12847;DHT22;6492;48.128;8.320;2023-11-19T20:17:45;8.10;39.40
12847;DHT22;6492;48.128;8.320;2023-11-19T20:22:08;8.00;40.30
12847;DHT22;6492;48.128;8.320;2023-11-19T20:26:22;8.00;41.20
12847;DHT22;6492;48.128;8.320;2023-11-19T20:30:24;7.90;42.70
12847;DHT22;6492;48.128;8.320;2023-11-19T20:34:29;7.90;42.00
12847;DHT22;6492;48.128;8.320;2023-11-19T20:38:54;7.90;41.80
12847;DHT22;6492;48.128;8.320;2023-11-19T20:42:58;7.80;41.30
12847;DHT22;6492;48.128;8.320;2023-11-19T20:47:13;7.90;42.30
12847;DHT22;6492;48.128;8.320;2023-11-19T20:51:31;7.90;43.10
12847;DHT22;6492;48.128;8.320;2023-11-19T20:55:38;8.00;42.50
12847;DHT22;6492;48.128;8.320;2023-11-19T20:59:47;8.00;41.50
12847;DHT22;6492;48.128;8.320;2023-11-19T21:04:03;8.00;41.70
12847;DHT22;6492;48.128;8.320;2023-11-19T21:08:12;8.10;40.60
12847;DHT22;6492;48.128;8.320;2023-11-19T21:12:21;8.10;40.10
12847;DHT22;6492;48.128;8.320;2023-11-19T21:16:24;8.20;39.10
12847;DHT22;6492;48.128;8.320;2023-11-19T21:20:26;8.20;38.90
12847;DHT22;6492;48.128;8.320;2023-11-19T21:24:28;8.10;37.60
12847;DHT22;6492;48.128;8.320;2023-11-19T21:28:30;8.10;37.80
12847;DHT22;6492;48.128;8.320;2023-11-19T21:32:43;8.00;38.20
12847;DHT22;6492;48.128;8.320;2023-11-19T21:36:55;7.90;37.60
12847;DHT22;6492;48.128;8.320;2023-11-19T21:40:56;7.90;36.70
12847;DHT22;6492;48.128;8.320;2023-11-19T21:45:00;7.80;36.70
12847;DHT22;6492;48.128;8.320;2023-11-19T21:49:04;7.70;35.50
12847;DHT22;6492;48.128;8.320;2023-11-19T21:53:06;7.80;34.30
12847;DHT22;6492;48.128;8.320;2023-11-19T21:57:07;7.80;34.00
12847;DHT22;6492;48.128;8.320;2023-11-19T22:01:09;7.80;32.80
12847;DHT22;6492;48.128;8.320;2023-11-19T22:05:12;7.90;32.50
12847;DHT22;6492;48.128;8.320;2023-11-19T22:09:31;8.00;30.80
12847;DHT22;6492;48.128;8.320;2023-11-19T22:13:33;8.00;30.00
12847;DHT22;6492;48.128;8.320;2023-11-19T22:17:36;8.00;29.50
12847;DHT22;6492;48.128;8.320;2023-11-19T22:21:39;7.90;29.80
12847;DHT22;6492;48.128;8.320;2023-11-19T22:25:41;8.00;30.30
12847;DHT22;6492;48.128;8.320;2023-11-19T22:29:44;7.90;30.00
12847;DHT22;6492;48.128;8.320;2023-11-19T22:33:46;7.90;29.80
12847;DHT22;6492;48.128;8.320;2023-11-19T22:37:50;7.90;29.60
12847;DHT22;6492;48.128;8.320;2023-11-19T22:41:52;7.80;30.10
12847;DHT22;6492;48.128;8.320;2023-11-19T22:45:54;7.80;29.40
12847;DHT22;6492;48.128;8.320;2023-11-19T22:49:56;7.80;29.80
12847;DHT22;6492;48.128;8.320;2023-11-19T22:53:59;7.70;29.30
12847;DHT22;6492;48.128;8.320;2023-11-19T22:58:01;7.70;28.70
12847;DHT22;6492;48.128;8.320;2023-11-19T23:02:04;7.70;28.60
12847;DHT22;6492;48.128;8.320;2023-11-19T23:06:06;7.60;28.10
12847;DHT22;6492;48.128;8.320;2023-11-19T23:10:10;7.60;27.60
12847;DHT22;6492;48.128;8.320;2023-11-19T23:14:12;7.50;28.30
12847;DHT22;6492;48.128;8.320;2023-11-19T23:18:14;7.40;27.80
12847;DHT22;6492;48.128;8.320;2023-11-19T23:22:17;7.40;28.10
12847;DHT22;6492;48.128;8.320;2023-11-19T23:26:20;7.30;28.40
12847;DHT22;6492;48.128;8.320;2023-11-19T23:30:22;7.20;28.50
12847;DHT22;6492;48.128;8.320;2023-11-19T23:34:23;7.30;28.70
12847;DHT22;6492;48.128;8.320;2023-11-19T23:38:27;7.20;29.30
12847;DHT22;6492;48.128;8.320;2023-11-19T23:42:30;7.30;29.40
12847;DHT22;6492;48.128;8.320;2023-11-19T23:46:33;7.40;30.00
12847;DHT22;6492;48.128;8.320;2023-11-19T23:50:35;7.10;30.60
12847;DHT22;6492;48.128;8.320;2023-11-19T23:54:37;7.20;31.60
12847;DHT22;6492;48.128;8.320;2023-11-19T23:58:40;7.20;31.50
